Time;durP1;ratioP1;P1;durP2;ratioP2;P2;SDS_P1;SDS_P2;PMS_P1;PMS_P2;Temp;Humidity;BMP_temperature;BMP_pressure;BME280_temperature;BME280_humidity;BME280_pressure;Samples;Min_cycle;Max_cycle;Signal;HPM_P1;HPM_P2
2023/01/14 00:01:26;;;;;;;13.25;2.15;;;8.10;99.90;;;;;;4939075;29;20047;-77
2023/01/14 00:03:53;;;;;;;12.13;2.40;;;8.10;99.90;;;;;;4947771;29;20051;-78
2023/01/14 00:06:23;;;;;;;11.95;2.38;;;8.10;99.90;;;;;;4953922;29;20066;-77
2023/01/14 00:08:58;;;;;;;14.57;2.90;;;8.20;99.90;;;;;;4951156;29;20429;-77
2023/01/14 00:14:14;;;;;;;14.70;2.55;;;8.20;99.90;;;;;;4945740;28;20047;-78
2023/01/14 00:16:41;;;;;;;16.50;2.00;;;8.20;99.90;;;;;;4960566;28;20054;-77
2023/01/14 00:19:09;;;;;;;9.55;2.30;;;8.30;99.90;;;;;;4941210;29;20087;-77
2023/01/14 00:21:37;;;;;;;9.60;2.50;;;8.30;99.90;;;;;;4942757;28;20078;-77
2023/01/14 00:24:04;;;;;;;12.93;2.25;;;8.30;99.90;;;;;;4939481;29;20062;-78
2023/01/14 00:26:31;;;;;;;10.10;2.38;;;8.30;99.90;;;;;;4938688;29;20051;-78
2023/01/14 00:28:57;;;;;;;13.40;2.92;;;8.40;99.90;;;;;;4944105;29;20054;-77
2023/01/14 00:31:26;;;;;;;9.23;2.42;;;8.40;99.90;;;;;;4952170;29;20534;-78
2023/01/14 00:33:54;;;;;;;12.50;2.83;;;8.40;99.90;;;;;;4966336;28;20047;-77
2023/01/14 00:36:23;;;;;;;10.80;2.25;;;8.40;99.90;;;;;;4950711;28;20058;-78
2023/01/14 00:38:50;;;;;;;10.32;1.80;;;8.40;99.90;;;;;;4946361;28;20047;-77
2023/01/14 00:41:21;;;;;;;11.70;2.03;;;8.40;99.90;;;;;;4962015;28;20051;-77
2023/01/14 00:43:52;;;;;;;10.82;2.88;;;8.40;99.90;;;;;;4943276;29;20421;-77
2023/01/14 00:46:22;;;;;;;8.85;2.42;;;8.40;99.90;;;;;;4941276;29;20134;-77
2023/01/14 00:48:49;;;;;;;10.73;2.38;;;8.40;99.90;;;;;;4940772;29;20083;-77
2023/01/14 00:51:17;;;;;;;11.57;2.10;;;8.50;99.90;;;;;;4938894;29;20434;-78
2023/01/14 00:53:47;;;;;;;16.67;2.30;;;8.40;99.90;;;;;;4933553;29;20050;-77
2023/01/14 00:56:16;;;;;;;15.63;2.75;;;8.40;99.90;;;;;;4954387;28;20047;-77
2023/01/14 00:58:42;;;;;;;12.88;2.10;;;8.40;99.90;;;;;;4952543;28;20055;-77
2023/01/14 01:01:09;;;;;;;12.15;2.10;;;8.40;99.90;;;;;;4934223;29;20055;-77
2023/01/14 01:03:55;;;;;;;18.35;2.10;;;8.50;99.90;;;;;;4942876;29;20063;-78
2023/01/14 01:06:25;;;;;;;15.38;2.65;;;8.50;99.90;;;;;;4934241;29;20058;-77
2023/01/14 01:08:58;;;;;;;13.83;3.40;;;8.50;99.90;;;;;;4941542;29;20054;-77
2023/01/14 01:11:25;;;;;;;13.30;2.10;;;8.50;99.90;;;;;;4933683;29;20048;-77
2023/01/14 01:13:54;;;;;;;10.52;1.85;;;8.50;99.90;;;;;;4954759;28;20047;-77
2023/01/14 01:16:23;;;;;;;11.98;2.17;;;8.50;99.90;;;;;;4939039;29;20071;-77
2023/01/14 01:18:53;;;;;;;16.52;2.60;;;8.50;99.90;;;;;;4932040;29;20051;-74
2023/01/14 01:21:21;;;;;;;16.10;2.22;;;8.50;99.90;;;;;;4966759;28;20047;-77
2023/01/14 01:23:48;;;;;;;10.63;1.95;;;8.50;99.90;;;;;;4951685;28;20087;-77
2023/01/14 01:26:17;;;;;;;11.45;2.28;;;8.50;99.90;;;;;;4946368;29;20055;-77
2023/01/14 01:28:49;;;;;;;10.55;3.28;;;8.50;99.90;;;;;;4948677;28;20069;-77
2023/01/14 01:31:16;;;;;;;16.17;2.10;;;8.50;99.90;;;;;;4946826;28;20098;-77
2023/01/14 01:33:42;;;;;;;15.60;2.58;;;8.50;99.90;;;;;;4944436;29;20508;-77
2023/01/14 01:36:15;;;;;;;14.05;3.13;;;8.50;99.90;;;;;;4942793;29;20043;-75
2023/01/14 01:38:43;;;;;;;9.65;2.05;;;8.50;99.90;;;;;;4939042;29;20051;-75
2023/01/14 01:41:15;;;;;;;13.90;2.50;;;8.40;99.90;;;;;;4938246;29;20051;-77
2023/01/14 01:43:57;;;;;;;12.75;2.75;;;8.40;99.90;;;;;;4937449;29;20058;-78
2023/01/14 01:46:24;;;;;;;15.05;2.28;;;8.30;99.90;;;;;;4959247;28;20077;-75
2023/01/14 01:48:52;;;;;;;10.30;2.53;;;8.30;99.90;;;;;;4951370;28;20058;-75
2023/01/14 01:51:24;;;;;;;11.52;2.28;;;8.30;99.90;;;;;;4949372;29;20079;-76
2023/01/14 01:53:54;;;;;;;11.68;2.33;;;8.30;99.90;;;;;;4947873;28;20082;-75
2023/01/14 01:56:28;;;;;;;8.63;2.28;;;8.30;99.90;;;;;;4945589;28;20057;-76
2023/01/14 01:58:56;;;;;;;12.23;2.53;;;8.30;99.90;;;;;;4944191;29;20137;-75
2023/01/14 02:01:23;;;;;;;13.45;1.80;;;8.30;99.90;;;;;;4943500;28;20098;-75
2023/01/14 02:03:51;;;;;;;13.77;1.90;;;8.20;99.90;;;;;;4937464;29;20055;-75
2023/01/14 02:06:18;;;;;;;7.05;1.75;;;8.20;99.90;;;;;;4938513;29;20981;-76
2023/01/14 02:08:49;;;;;;;11.55;2.17;;;8.10;99.90;;;;;;4936492;29;20086;-76
2023/01/14 02:11:30;;;;;;;9.13;1.77;;;8.10;99.90;;;;;;4950110;28;20074;-76
2023/01/14 02:14:18;;;;;;;12.23;2.60;;;8.10;99.90;;;;;;4951361;28;20054;-76
2023/01/14 02:17:07;;;;;;;12.10;2.20;;;8.10;99.90;;;;;;4948108;29;20051;-75
2023/01/14 02:19:55;;;;;;;12.98;2.67;;;8.00;99.90;;;;;;4943218;29;20421;-77
2023/01/14 02:23:00;;;;;;;10.65;2.55;;;8.00;99.90;;;;;;4944456;29;20058;-77
2023/01/14 02:25:30;;;;;;;12.75;1.80;;;8.00;99.90;;;;;;4939991;29;20083;-76
2023/01/14 02:28:19;;;;;;;15.27;2.42;;;7.90;99.90;;;;;;4940938;28;20422;-76
2023/01/14 02:30:54;;;;;;;14.63;3.38;;;7.90;99.90;;;;;;4935675;29;20056;-76
2023/01/14 02:33:39;;;;;;;8.77;2.05;;;7.80;99.90;;;;;;4936518;29;20051;-76
2023/01/14 02:36:11;;;;;;;13.77;2.20;;;7.80;99.90;;;;;;4934734;29;20051;-76
2023/01/14 02:38:44;;;;;;;12.80;2.72;;;7.80;99.90;;;;;;4963867;28;20054;-75
2023/01/14 02:44:07;;;;;;;13.38;2.95;;;7.70;99.90;;;;;;4950695;29;20053;-76
2023/01/14 02:44:27;;;;;;;16.52;2.65;;;7.70;99.90;;;;;;4950100;29;20055;-75
2023/01/14 02:47:03;;;;;;;10.93;2.50;;;7.70;99.90;;;;;;4947583;29;20055;-76
2023/01/14 02:49:34;;;;;;;14.50;2.15;;;7.70;99.90;;;;;;4946665;29;20053;-76
2023/01/14 02:52:06;;;;;;;12.45;2.20;;;7.60;99.90;;;;;;4944840;29;20066;-75
2023/01/14 02:54:32;;;;;;;13.90;2.85;;;7.60;99.90;;;;;;4941749;29;20090;-76
2023/01/14 02:57:17;;;;;;;16.73;3.10;;;7.60;99.90;;;;;;4956164;28;20556;-76
2023/01/14 03:00:00;;;;;;;22.30;2.80;;;7.60;99.90;;;;;;4939585;29;20059;-77
2023/01/14 03:02:46;;;;;;;10.05;3.47;;;7.60;99.90;;;;;;4957713;28;20130;-77
2023/01/14 03:06:02;;;;;;;11.63;1.80;;;7.60;99.90;;;;;;4951722;28;20094;-76
2023/01/14 03:08:59;;;;;;;17.23;2.95;;;7.60;99.90;;;;;;4916434;28;20088;-75
2023/01/14 03:11:59;;;;;;;16.30;2.65;;;7.60;99.90;;;;;;4947247;29;20051;-76
2023/01/14 03:14:32;;;;;;;17.73;2.33;;;7.60;99.90;;;;;;4942912;29;20054;-76
2023/01/14 03:17:15;;;;;;;14.85;2.38;;;7.70;99.90;;;;;;4956759;28;20051;-77
2023/01/14 03:19:50;;;;;;;14.32;2.17;;;7.70;99.90;;;;;;4942581;29;20429;-77
2023/01/14 03:22:16;;;;;;;11.75;2.63;;;7.70;99.90;;;;;;4941146;29;20582;-77
2023/01/14 03:24:45;;;;;;;14.07;2.20;;;7.80;99.90;;;;;;4939253;29;20429;-76
2023/01/14 03:27:23;;;;;;;10.43;2.15;;;7.80;99.90;;;;;;4937717;29;20119;-76
2023/01/14 03:29:54;;;;;;;10.35;2.65;;;7.80;99.90;;;;;;4947879;29;20070;-76
2023/01/14 03:32:26;;;;;;;10.40;2.55;;;7.80;99.90;;;;;;4951790;29;20082;-76
2023/01/14 03:35:02;;;;;;;11.90;1.85;;;7.90;99.90;;;;;;4935226;29;20050;-76
2023/01/14 03:37:29;;;;;;;16.13;2.10;;;7.90;99.90;;;;;;4946778;29;20429;-76
2023/01/14 03:40:00;;;;;;;12.82;2.38;;;7.90;99.90;;;;;;4945498;29;20394;-76
2023/01/14 03:42:32;;;;;;;16.40;3.13;;;7.80;99.90;;;;;;4945102;29;20059;-76
2023/01/14 03:45:20;;;;;;;13.55;2.25;;;7.90;99.90;;;;;;4942058;29;20421;-77
2023/01/14 03:47:47;;;;;;;14.43;2.25;;;7.90;99.90;;;;;;4939875;28;20058;-77
2023/01/14 03:50:18;;;;;;;13.13;2.35;;;8.00;99.90;;;;;;4938916;29;20517;-76
2023/01/14 03:52:57;;;;;;;14.07;2.28;;;8.00;99.90;;;;;;4937058;29;20055;-76
2023/01/14 03:55:39;;;;;;;13.45;2.40;;;8.00;99.90;;;;;;4966192;28;20043;-76
2023/01/14 03:58:11;;;;;;;13.52;2.17;;;8.00;99.90;;;;;;4951992;29;20055;-76
2023/01/14 04:00:46;;;;;;;12.32;2.13;;;8.00;99.90;;;;;;4949444;29;20055;-76
2023/01/14 04:03:14;;;;;;;13.63;1.92;;;8.00;99.90;;;;;;4946804;29;20497;-77
2023/01/14 04:05:42;;;;;;;12.05;2.15;;;8.00;99.90;;;;;;4946594;29;20055;-76
2023/01/14 04:08:09;;;;;;;8.27;1.95;;;7.90;99.90;;;;;;4959612;28;20091;-77
2023/01/14 04:10:36;;;;;;;6.63;1.85;;;8.00;99.90;;;;;;4942323;28;20051;-75
2023/01/14 04:15:47;;;;;;;15.38;2.10;;;7.90;99.90;;;;;;4938378;29;20074;-77
2023/01/14 04:18:14;;;;;;;10.20;2.78;;;7.90;99.90;;;;;;4936979;29;20055;-76
2023/01/14 04:20:41;;;;;;;13.48;1.80;;;7.90;99.90;;;;;;4953111;29;20051;-76
2023/01/14 04:23:07;;;;;;;6.00;1.65;;;7.80;99.90;;;;;;4950274;29;20097;-76
2023/01/14 04:25:34;;;;;;;13.50;2.05;;;7.90;99.90;;;;;;4959555;28;20047;-77
2023/01/14 04:28:00;;;;;;;15.77;2.03;;;7.80;99.90;;;;;;4948771;28;20433;-76
2023/01/14 04:30:27;;;;;;;10.95;1.98;;;7.80;99.90;;;;;;4961482;28;20063;-77
2023/01/14 04:32:54;;;;;;;13.70;2.00;;;7.80;99.90;;;;;;4942415;29;20056;-76
2023/01/14 04:35:20;;;;;;;9.23;1.77;;;7.90;99.90;;;;;;4942452;29;20055;-76
2023/01/14 04:37:47;;;;;;;7.72;1.38;;;7.90;99.90;;;;;;4940758;29;20217;-75
2023/01/14 04:40:14;;;;;;;11.55;2.38;;;7.90;99.90;;;;;;4938229;29;20478;-76
2023/01/14 04:42:41;;;;;;;4.95;1.70;;;7.80;99.90;;;;;;4937019;29;20639;-76
2023/01/14 04:45:08;;;;;;;8.57;2.08;;;7.80;99.90;;;;;;4944583;29;20066;-77
2023/01/14 04:47:35;;;;;;;7.72;1.85;;;7.90;99.90;;;;;;4952964;28;20391;-76
2023/01/14 04:50:30;;;;;;;12.45;2.22;;;7.80;99.90;;;;;;4950402;28;20130;-76
2023/01/14 04:52:48;;;;;;;20.63;2.38;;;7.90;99.90;;;;;;4947306;29;20497;-76
2023/01/14 04:55:15;;;;;;;9.35;1.95;;;7.80;99.90;;;;;;4946170;29;20066;-76
2023/01/14 04:57:41;;;;;;;7.47;1.27;;;7.90;99.90;;;;;;4959443;28;20689;-76
2023/01/14 05:00:10;;;;;;;8.23;1.92;;;7.90;99.90;;;;;;4942690;28;20054;-76
2023/01/14 05:02:36;;;;;;;7.90;1.27;;;7.90;99.90;;;;;;4939643;29;20058;-76
2023/01/14 05:05:03;;;;;;;6.15;1.73;;;7.90;99.90;;;;;;4937362;29;20051;-76
2023/01/14 05:07:30;;;;;;;9.52;1.65;;;7.90;99.90;;;;;;4937372;29;20052;-76
2023/01/14 05:09:57;;;;;;;5.85;1.20;;;7.90;99.90;;;;;;4939294;29;20405;-76
2023/01/14 05:12:23;;;;;;;6.60;1.23;;;8.00;99.90;;;;;;4931087;29;20056;-78
2023/01/14 05:14:50;;;;;;;9.77;2.08;;;8.00;99.90;;;;;;4944769;29;20490;-77
2023/01/14 05:17:17;;;;;;;10.75;2.28;;;8.00;99.90;;;;;;4947388;28;20055;-76
2023/01/14 05:19:43;;;;;;;11.88;1.90;;;8.10;99.90;;;;;;4962060;28;20051;-76
2023/01/14 05:22:10;;;;;;;8.95;1.80;;;8.10;99.90;;;;;;4944918;29;20126;-76
2023/01/14 05:24:36;;;;;;;10.57;1.77;;;8.10;99.90;;;;;;4943044;29;20054;-76
2023/01/14 05:27:03;;;;;;;6.35;2.10;;;8.20;99.90;;;;;;4940512;29;20053;-76
2023/01/14 05:29:30;;;;;;;7.50;1.48;;;8.20;99.90;;;;;;4954243;28;20043;-77
2023/01/14 05:31:56;;;;;;;6.55;1.30;;;8.20;99.90;;;;;;4937686;29;20051;-77
2023/01/14 05:34:23;;;;;;;4.63;1.52;;;8.20;99.90;;;;;;4934537;29;20051;-76
2023/01/14 05:36:50;;;;;;;6.53;1.40;;;8.30;99.90;;;;;;4948529;29;20051;-77
2023/01/14 05:39:16;;;;;;;7.15;1.52;;;8.30;99.90;;;;;;4965869;28;20054;-76
2023/01/14 05:47:14;;;;;;;8.68;1.00;;;8.30;99.90;;;;;;4944761;29;20047;-75
2023/01/14 05:49:40;;;;;;;5.65;1.95;;;8.30;99.90;;;;;;4957456;28;20054;-77
2023/01/14 05:52:07;;;;;;;5.75;1.27;;;8.30;99.90;;;;;;4938814;29;20047;-76
2023/01/14 05:54:34;;;;;;;4.32;1.10;;;8.30;99.90;;;;;;4953946;28;20074;-76
2023/01/14 05:57:00;;;;;;;3.70;0.80;;;8.30;99.90;;;;;;4952257;28;20402;-77
2023/01/14 05:59:27;;;;;;;6.95;1.10;;;8.30;99.90;;;;;;4935892;29;20482;-76
2023/01/14 06:07:27;;;;;;;2.58;1.00;;;8.40;99.90;;;;;;4948912;29;20055;-76
2023/01/14 06:09:54;;;;;;;4.88;1.10;;;8.50;99.90;;;;;;4946951;28;20057;-76
2023/01/14 06:12:33;;;;;;;4.63;1.00;;;8.50;99.90;;;;;;4944939;29;20523;-77
2023/01/14 06:15:00;;;;;;;3.83;1.23;;;8.50;99.90;;;;;;4941940;29;20048;-76
2023/01/14 06:17:34;;;;;;;2.67;1.02;;;8.60;99.90;;;;;;4940870;29;20520;-76
2023/01/14 06:20:02;;;;;;;4.55;1.05;;;8.60;99.90;;;;;;4947781;28;20067;-77
2023/01/14 06:22:29;;;;;;;4.50;1.10;;;8.60;99.90;;;;;;4951731;28;20127;-77
2023/01/14 06:24:56;;;;;;;4.32;1.17;;;8.70;99.90;;;;;;4935374;29;20126;-76
2023/01/14 06:27:22;;;;;;;7.13;1.63;;;8.70;99.90;;;;;;4943694;29;20130;-77
2023/01/14 06:29:49;;;;;;;7.20;1.52;;;8.80;99.90;;;;;;4951125;28;20621;-77
2023/01/14 06:32:15;;;;;;;4.10;1.15;;;8.80;99.90;;;;;;4947050;29;20523;-77
2023/01/14 06:34:42;;;;;;;4.05;1.08;;;8.80;99.90;;;;;;4941580;29;20057;-77
2023/01/14 06:37:09;;;;;;;5.07;1.50;;;8.80;99.90;;;;;;4945984;28;20063;-77
2023/01/14 06:39:35;;;;;;;4.93;1.85;;;8.90;99.90;;;;;;4943712;28;20050;-77
2023/01/14 06:42:02;;;;;;;2.72;0.80;;;8.90;99.90;;;;;;4956476;28;20409;-76
2023/01/14 06:44:29;;;;;;;8.45;1.20;;;8.90;99.90;;;;;;4953870;28;20055;-77
2023/01/14 06:46:55;;;;;;;7.25;0.85;;;8.90;99.90;;;;;;4938334;29;20059;-76
2023/01/14 06:49:22;;;;;;;5.15;1.90;;;8.90;99.90;;;;;;4935263;29;20071;-77
2023/01/14 06:51:49;;;;;;;4.45;1.15;;;8.90;99.90;;;;;;4935886;29;20051;-76
2023/01/14 06:54:15;;;;;;;1.73;0.70;;;8.90;99.90;;;;;;4966176;28;20215;-76
2023/01/14 06:56:43;;;;;;;5.03;0.63;;;8.90;99.90;;;;;;4950063;28;20048;-77
2023/01/14 06:59:09;;;;;;;1.63;0.60;;;8.90;99.90;;;;;;4962422;28;20054;-76
2023/01/14 07:01:36;;;;;;;4.60;1.33;;;8.90;99.90;;;;;;4960413;28;20051;-78
2023/01/14 07:04:04;;;;;;;3.35;1.02;;;8.90;99.90;;;;;;4958825;28;20535;-77
2023/01/14 07:06:30;;;;;;;4.50;1.10;;;8.90;99.90;;;;;;4942961;28;20107;-76
2023/01/14 07:08:57;;;;;;;2.47;0.73;;;8.90;99.90;;;;;;4938388;29;20063;-78
2023/01/14 07:11:24;;;;;;;5.00;1.10;;;8.90;99.90;;;;;;4938330;29;20066;-77
2023/01/14 07:13:50;;;;;;;3.10;1.00;;;8.90;99.90;;;;;;4936331;29;20537;-77
2023/01/14 07:16:17;;;;;;;5.22;1.25;;;8.90;99.90;;;;;;4949573;28;20056;-77
2023/01/14 07:18:44;;;;;;;3.60;0.98;;;9.00;99.90;;;;;;4959907;28;20083;-77
2023/01/14 07:21:10;;;;;;;1.83;0.80;;;9.00;99.90;;;;;;4965397;28;20051;-76
2023/01/14 07:23:37;;;;;;;3.22;0.63;;;9.00;99.90;;;;;;4965596;28;20512;-76
2023/01/14 07:26:04;;;;;;;2.13;0.77;;;9.00;99.90;;;;;;4950604;28;20079;-76
2023/01/14 07:28:33;;;;;;;4.80;1.05;;;9.00;99.90;;;;;;4947793;29;20055;-77
2023/01/14 07:31:05;;;;;;;3.17;0.70;;;9.00;99.90;;;;;;4944734;29;20055;-76
2023/01/14 07:33:32;;;;;;;1.65;0.50;;;9.00;99.90;;;;;;4942849;29;20051;-76
2023/01/14 07:35:59;;;;;;;3.45;1.00;;;9.10;99.90;;;;;;4957238;28;20111;-77
2023/01/14 07:38:26;;;;;;;5.05;1.17;;;9.10;99.90;;;;;;4957893;28;20059;-76
2023/01/14 07:40:57;;;;;;;3.30;1.00;;;9.10;99.90;;;;;;4938324;29;20052;-76
2023/01/14 07:43:23;;;;;;;4.00;1.00;;;9.20;99.90;;;;;;4941531;29;20089;-76
2023/01/14 07:45:50;;;;;;;3.50;1.60;;;9.20;99.90;;;;;;4954141;28;20134;-76
2023/01/14 07:48:18;;;;;;;2.58;1.30;;;9.20;99.90;;;;;;4952112;28;20055;-78
2023/01/14 07:50:44;;;;;;;2.53;1.17;;;9.20;99.90;;;;;;4948968;29;20055;-76
2023/01/14 07:53:11;;;;;;;3.97;1.38;;;9.20;99.90;;;;;;4948256;29;20066;-76
2023/01/14 07:55:38;;;;;;;4.43;0.47;;;9.30;99.90;;;;;;4946665;28;20501;-77
2023/01/14 07:58:05;;;;;;;4.60;1.30;;;9.30;99.90;;;;;;4945129;28;20124;-77
2023/01/14 08:00:31;;;;;;;2.45;1.05;;;9.30;99.90;;;;;;4957649;28;20044;-76
2023/01/14 08:02:58;;;;;;;4.95;1.17;;;9.30;99.90;;;;;;4940593;29;20527;-77
2023/01/14 08:05:25;;;;;;;4.55;0.98;;;9.30;99.90;;;;;;4938849;29;20078;-76
2023/01/14 08:07:51;;;;;;;4.00;0.80;;;9.30;99.90;;;;;;4937038;29;20048;-78
2023/01/14 08:10:18;;;;;;;5.22;1.50;;;9.30;99.90;;;;;;4956094;28;20107;-77
2023/01/14 08:12:45;;;;;;;1.83;0.50;;;9.30;99.90;;;;;;4944487;29;20138;-76
2023/01/14 08:15:12;;;;;;;3.30;0.80;;;9.30;99.90;;;;;;4948282;28;20063;-75
2023/01/14 08:17:40;;;;;;;2.33;0.90;;;9.30;99.90;;;;;;4962975;28;20102;-76
2023/01/14 08:20:08;;;;;;;5.38;1.10;;;9.40;99.90;;;;;;4943368;29;20050;-76
2023/01/14 08:22:35;;;;;;;1.92;0.70;;;9.30;99.90;;;;;;4942106;29;20058;-76
2023/01/14 08:25:02;;;;;;;0.73;0.50;;;9.30;99.90;;;;;;4943381;28;20044;-76
2023/01/14 08:27:32;;;;;;;1.67;0.80;;;9.30;99.90;;;;;;4940691;29;20048;-76
2023/01/14 08:29:58;;;;;;;2.83;0.90;;;9.30;99.90;;;;;;4936780;29;20433;-76
2023/01/14 08:32:26;;;;;;;1.45;0.60;;;9.30;99.90;;;;;;4935876;29;20431;-76
2023/01/14 08:34:52;;;;;;;3.72;0.70;;;9.30;99.90;;;;;;4936163;29;20506;-76
2023/01/14 08:37:19;;;;;;;4.13;0.88;;;9.40;99.90;;;;;;4943909;28;20051;-76
2023/01/14 08:39:46;;;;;;;2.85;0.85;;;9.40;99.90;;;;;;4942167;29;20051;-76
2023/01/14 08:42:12;;;;;;;4.40;1.00;;;9.40;99.90;;;;;;4944689;28;20501;-77
2023/01/14 08:44:39;;;;;;;6.15;1.48;;;9.50;99.90;;;;;;4939658;29;20044;-79
2023/01/14 08:47:06;;;;;;;3.15;1.20;;;9.50;99.90;;;;;;4940939;29;20051;-76
2023/01/14 08:49:32;;;;;;;6.35;1.65;;;9.50;99.90;;;;;;4943109;28;20055;-76
2023/01/14 08:51:59;;;;;;;1.90;0.60;;;9.60;99.90;;;;;;4939351;28;20051;-76
2023/01/14 08:54:26;;;;;;;2.72;0.88;;;9.60;99.90;;;;;;4937501;29;20051;-76
2023/01/14 08:56:56;;;;;;;4.95;0.75;;;9.60;99.90;;;;;;4936697;29;20122;-76
2023/01/14 08:59:24;;;;;;;4.60;1.35;;;9.60;99.90;;;;;;4934937;29;20054;-77
2023/01/14 09:01:51;;;;;;;5.40;1.30;;;9.60;99.90;;;;;;4942826;29;20058;-75
2023/01/14 09:04:22;;;;;;;4.45;1.17;;;9.70;99.90;;;;;;4949120;28;20050;-76
2023/01/14 09:18:00;;;;;;;2.58;0.90;;;9.80;99.90;;;;;;4938584;29;20139;-77
2023/01/14 09:20:31;;;;;;;4.47;0.98;;;9.80;99.90;;;;;;4933398;29;20058;-77
2023/01/14 09:22:59;;;;;;;3.95;0.82;;;9.80;99.90;;;;;;4949084;28;20073;-76
2023/01/14 09:25:26;;;;;;;2.92;0.63;;;9.90;99.90;;;;;;4939148;29;20047;-76
2023/01/14 09:27:53;;;;;;;3.33;0.77;;;9.90;99.90;;;;;;4941626;28;20155;-75
2023/01/14 09:30:20;;;;;;;4.30;0.90;;;9.90;99.90;;;;;;4940680;29;20055;-76
2023/01/14 09:32:47;;;;;;;3.30;0.65;;;9.90;99.90;;;;;;4943664;29;20131;-75
2023/01/14 09:35:14;;;;;;;4.57;1.20;;;10.00;99.90;;;;;;4944173;29;20102;-77
2023/01/14 09:37:40;;;;;;;2.08;1.00;;;10.00;99.90;;;;;;4935352;29;20044;-77
2023/01/14 09:40:08;;;;;;;3.92;1.40;;;10.00;99.90;;;;;;4936273;29;20052;-76
2023/01/14 09:42:39;;;;;;;2.00;0.90;;;10.10;99.90;;;;;;4936784;29;20536;-76
2023/01/14 09:45:13;;;;;;;2.17;1.00;;;10.10;99.90;;;;;;4937343;29;20228;-76
2023/01/14 09:47:42;;;;;;;4.43;0.80;;;10.10;99.90;;;;;;4951591;28;20513;-76
2023/01/14 09:50:18;;;;;;;1.50;0.82;;;10.10;99.90;;;;;;4931790;29;20119;-77
2023/01/14 09:53:13;;;;;;;0.95;0.55;;;10.10;99.90;;;;;;4942138;29;20399;-77
2023/01/14 09:55:44;;;;;;;0.85;0.80;;;10.10;99.90;;;;;;4932493;29;20051;-77
2023/01/14 09:58:36;;;;;;;2.67;0.70;;;10.10;99.90;;;;;;4941969;29;20047;-77
2023/01/14 10:01:06;;;;;;;3.08;0.77;;;10.10;99.90;;;;;;4938705;29;20047;-76
2023/01/14 10:03:52;;;;;;;1.88;0.80;;;10.10;99.90;;;;;;4942081;28;20425;-76
2023/01/14 10:06:20;;;;;;;3.90;1.45;;;10.20;99.90;;;;;;4940415;29;20062;-77
2023/01/14 10:08:56;;;;;;;12.80;3.10;;;10.20;99.90;;;;;;4936579;29;20055;-76
2023/01/14 10:11:26;;;;;;;4.20;0.88;;;10.20;99.90;;;;;;4935103;29;20429;-77
2023/01/14 10:14:14;;;;;;;2.95;0.90;;;10.20;99.90;;;;;;4935631;29;20059;-77
2023/01/14 10:16:44;;;;;;;3.63;1.05;;;10.20;99.90;;;;;;4936930;29;20059;-76
2023/01/14 10:19:20;;;;;;;;;;;10.20;99.90;;;;;;4948113;28;20130;-76
2023/01/14 10:22:06;;;;;;;3.03;0.98;;;10.30;99.90;;;;;;4941520;29;19923;-76
2023/01/14 10:24:33;;;;;;;2.30;0.60;;;10.30;99.90;;;;;;4936256;29;20169;-78
2023/01/14 10:27:01;;;;;;;3.25;1.13;;;10.30;99.90;;;;;;4938336;28;20040;-77
2023/01/14 10:29:30;;;;;;;5.72;1.10;;;10.30;99.90;;;;;;4937031;28;20055;-77
2023/01/14 10:31:59;;;;;;;4.93;1.00;;;10.30;99.90;;;;;;4936360;29;20070;-76
2023/01/14 10:34:49;;;;;;;3.10;0.70;;;10.40;99.90;;;;;;4936936;29;20446;-76
2023/01/14 10:37:15;;;;;;;2.78;0.65;;;10.40;99.90;;;;;;4936196;29;20130;-77
2023/01/14 10:39:47;;;;;;;2.97;0.70;;;10.40;99.90;;;;;;4933252;29;20044;-77
2023/01/14 10:42:14;;;;;;;4.55;1.23;;;10.40;99.90;;;;;;4932660;29;20058;-77
2023/01/14 10:44:45;;;;;;;1.77;0.70;;;10.40;99.90;;;;;;4945056;29;20051;-77
2023/01/14 10:47:16;;;;;;;3.17;0.93;;;10.40;99.90;;;;;;4942243;28;20059;-77
2023/01/14 10:49:55;;;;;;;2.00;0.60;;;10.40;99.90;;;;;;4942689;29;20106;-76
2023/01/14 10:52:27;;;;;;;2.83;0.75;;;10.30;99.90;;;;;;4941436;29;20055;-77
2023/01/14 10:54:57;;;;;;;5.05;1.20;;;10.30;99.90;;;;;;4936994;29;20068;-76
2023/01/14 10:57:26;;;;;;;4.75;0.95;;;10.40;99.90;;;;;;4938393;28;20746;-77
2023/01/14 10:59:56;;;;;;;36.50;17.52;;;10.40;99.90;;;;;;4942628;29;20051;-75
2023/01/14 11:02:38;;;;;;;4.50;1.30;;;10.40;99.90;;;;;;4937096;29;20048;-75
2023/01/14 11:05:35;;;;;;;3.83;1.02;;;10.50;99.90;;;;;;4936383;29;20090;-75
2023/01/14 11:08:14;;;;;;;1.33;1.02;;;10.50;99.90;;;;;;4944453;29;20051;-77
2023/01/14 11:10:42;;;;;;;3.70;0.90;;;10.60;99.90;;;;;;4944073;29;20044;-77
2023/01/14 11:13:31;;;;;;;3.47;1.10;;;10.60;99.90;;;;;;4944934;29;20086;-77
2023/01/14 11:15:58;;;;;;;1.95;0.85;;;10.60;99.90;;;;;;4953991;28;20051;-76
2023/01/14 11:18:32;;;;;;;3.08;0.70;;;10.60;99.90;;;;;;4958658;28;20537;-76
2023/01/14 11:21:15;;;;;;;6.60;1.00;;;10.60;99.90;;;;;;4943590;29;20071;-77
2023/01/14 11:23:45;;;;;;;1.83;0.70;;;10.60;99.90;;;;;;4937140;29;20491;-76
2023/01/14 11:26:27;;;;;;;1.20;0.60;;;10.60;99.90;;;;;;4935840;28;20454;-76
2023/01/14 11:29:05;;;;;;;2.70;0.73;;;10.60;99.90;;;;;;4936826;29;20040;-77
2023/01/14 11:31:38;;;;;;;4.10;1.80;;;10.60;99.90;;;;;;4934261;29;20051;-77
2023/01/14 11:34:16;;;;;;;2.08;1.00;;;10.50;99.90;;;;;;4944915;29;20047;-77
2023/01/14 11:36:43;;;;;;;2.47;0.68;;;10.50;99.90;;;;;;4935205;29;20161;-77
2023/01/14 11:39:20;;;;;;;1.85;0.90;;;10.50;99.90;;;;;;4948935;28;20054;-77
2023/01/14 11:41:47;;;;;;;2.45;0.80;;;10.50;99.90;;;;;;4932878;29;20067;-76
2023/01/14 11:44:14;;;;;;;2.80;0.77;;;10.40;99.90;;;;;;4945180;29;20051;-77
2023/01/14 11:46:45;;;;;;;2.08;0.90;;;10.40;99.90;;;;;;4943194;29;20055;-76
2023/01/14 11:49:20;;;;;;;7.05;1.70;;;10.50;99.90;;;;;;4937032;29;20074;-77
2023/01/14 11:51:58;;;;;;;2.65;1.77;;;10.50;99.90;;;;;;4940400;29;20083;-77
2023/01/14 11:54:38;;;;;;;1.83;0.70;;;10.40;99.90;;;;;;4938799;29;20055;-76
2023/01/14 11:57:13;;;;;;;1.92;0.68;;;10.40;99.90;;;;;;4933308;29;20047;-77
2023/01/14 11:59:40;;;;;;;3.28;1.25;;;10.40;99.90;;;;;;4941455;29;20063;-77
2023/01/14 12:02:21;;;;;;;2.20;0.60;;;10.40;99.90;;;;;;4952398;28;20506;-78
2023/01/14 12:04:56;;;;;;;3.25;0.65;;;10.40;99.90;;;;;;4949123;29;20127;-76
2023/01/14 12:07:38;;;;;;;2.33;0.70;;;10.40;99.90;;;;;;4943704;28;20060;-77
2023/01/14 12:10:21;;;;;;;2.67;0.88;;;10.30;99.90;;;;;;4943060;29;20424;-76
2023/01/14 12:19:24;;;;;;;2.22;0.70;;;10.30;99.90;;;;;;4940698;29;20060;-76
2023/01/14 12:21:58;;;;;;;0.90;0.68;;;10.30;99.90;;;;;;4941584;29;20061;-77
2023/01/14 12:25:00;;;;;;;3.20;0.90;;;10.30;99.90;;;;;;4935610;29;20422;-77
2023/01/14 12:27:50;;;;;;;5.15;0.90;;;10.40;99.90;;;;;;4945330;29;20075;-76
2023/01/14 12:30:48;;;;;;;2.60;0.65;;;10.40;99.90;;;;;;4947296;29;20053;-77
2023/01/14 12:33:25;;;;;;;7.93;3.80;;;10.40;99.90;;;;;;4957475;28;20051;-76
2023/01/14 12:36:12;;;;;;;16.73;6.85;;;10.50;99.90;;;;;;4961268;28;20138;-76
2023/01/14 12:47:36;;;;;;;1.42;0.70;;;10.60;99.90;;;;;;4935486;29;20051;-77
2023/01/14 12:50:08;;;;;;;2.47;0.80;;;10.70;99.90;;;;;;4941850;29;20403;-77
2023/01/14 12:52:39;;;;;;;3.42;1.48;;;10.70;99.90;;;;;;4952927;28;20475;-77
2023/01/14 12:55:17;;;;;;;4.82;1.15;;;10.70;99.90;;;;;;4950925;28;20130;-77
2023/01/14 12:57:50;;;;;;;3.38;1.35;;;10.70;99.90;;;;;;4947562;29;20043;-77
2023/01/14 13:00:29;;;;;;;5.68;2.50;;;10.70;99.90;;;;;;4943772;29;20055;-76
2023/01/14 13:03:01;;;;;;;1.52;1.40;;;10.80;99.90;;;;;;4944077;29;20054;-76
2023/01/14 13:05:34;;;;;;;2.05;1.38;;;10.80;99.90;;;;;;4951473;28;20148;-75
2023/01/14 13:08:04;;;;;;;1.35;0.80;;;10.80;99.90;;;;;;4939128;29;20056;-77
2023/01/14 13:10:34;;;;;;;1.55;1.15;;;10.80;99.90;;;;;;4939160;29;20055;-75
2023/01/14 13:13:07;;;;;;;8.05;1.92;;;10.80;99.90;;;;;;4935690;29;20142;-76
2023/01/14 13:15:36;;;;;;;5.47;3.30;;;10.80;99.90;;;;;;4940514;29;20055;-76
2023/01/14 13:18:05;;;;;;;2.17;1.65;;;10.80;99.90;;;;;;4949541;28;20102;-77
2023/01/14 13:20:35;;;;;;;5.28;1.52;;;10.80;99.90;;;;;;4943936;29;20055;-76
2023/01/14 13:23:08;;;;;;;2.40;1.15;;;10.80;99.90;;;;;;4945128;29;20100;-77
2023/01/14 13:25:38;;;;;;;3.10;1.52;;;10.90;99.90;;;;;;4943128;29;20472;-76
2023/01/14 13:28:28;;;;;;;;;;;10.90;99.90;;;;;;4956152;28;20090;-76
2023/01/14 13:31:02;;;;;;;6.00;3.30;;;10.90;99.90;;;;;;4942491;29;20566;-76
2023/01/14 13:33:32;;;;;;;7.55;3.30;;;11.00;99.90;;;;;;4936611;29;20064;-76
2023/01/14 13:36:09;;;;;;;2.53;1.45;;;11.00;99.90;;;;;;4938478;29;20083;-79
2023/01/14 13:39:05;;;;;;;5.18;3.72;;;11.00;99.90;;;;;;4934368;29;20048;-76
2023/01/14 13:41:39;;;;;;;12.98;3.10;;;11.00;99.90;;;;;;4938961;29;20421;-76
2023/01/14 13:44:39;;;;;;;8.73;3.78;;;11.00;99.90;;;;;;4930206;29;20088;-78
2023/01/14 13:47:16;;;;;;;7.93;1.92;;;11.00;99.90;;;;;;4941907;28;20054;-76
2023/01/14 13:49:54;;;;;;;3.80;1.70;;;11.00;99.90;;;;;;4940753;29;20062;-76
2023/01/14 13:52:26;;;;;;;2.97;1.40;;;11.00;99.90;;;;;;4932077;29;20463;-75
2023/01/14 13:55:03;;;;;;;2.63;1.70;;;11.10;99.90;;;;;;4935373;29;20069;-75
2023/01/14 13:57:36;;;;;;;4.00;1.52;;;11.10;99.90;;;;;;4935170;29;20417;-76